createdAt,value
2023-05-11T00:06:01.909Z,98790.54
2023-05-11T00:16:06.000Z,98784.64
2023-05-11T00:26:10.530Z,98781.91
2023-05-11T00:36:14.063Z,98781.92
2023-05-11T00:46:18.350Z,98786.52
2023-05-11T00:56:22.508Z,98790.31
2023-05-11T01:06:31.891Z,98784.48
2023-05-11T01:16:34.012Z,98786.85
2023-05-11T01:27:00.091Z,98787.45
2023-05-11T01:37:10.415Z,98786.89
2023-05-11T01:47:16.128Z,98780.02
2023-05-11T01:57:20.738Z,98779.16
2023-05-11T02:07:26.442Z,98780.23
2023-05-11T02:17:35.488Z,98784.73
2023-05-11T02:27:38.664Z,98783.85
2023-05-11T02:37:46.633Z,98788.84
2023-05-11T02:47:49.944Z,98789.45
2023-05-11T02:57:55.569Z,98793.25
2023-05-11T03:08:01.719Z,98792.17
2023-05-11T03:18:06.296Z,98791.98
2023-05-11T03:28:11.819Z,98797.92
2023-05-11T03:38:17.486Z,98800.25
2023-05-11T03:48:22.459Z,98802.88
2023-05-11T03:58:26.538Z,98805.21
2023-05-11T04:08:30.202Z,98799.10
2023-05-11T04:18:34.182Z,98801.61
2023-05-11T04:28:37.945Z,98802.94
2023-05-11T04:38:41.709Z,98802.03
2023-05-11T04:48:45.743Z,98805.27
2023-05-11T04:58:49.851Z,98803.40
2023-05-11T05:08:57.287Z,98808.16
2023-05-11T05:19:01.237Z,98806.95
2023-05-11T05:29:04.434Z,98811.27
2023-05-11T05:39:12.525Z,98810.55
2023-05-11T05:49:16.973Z,98810.73
2023-05-11T05:59:20.767Z,98816.23
2023-05-11T06:09:24.832Z,98817.97
2023-05-11T06:19:28.595Z,98820.75
2023-05-11T06:29:33.381Z,98820.46
2023-05-11T06:39:37.730Z,98826.74
2023-05-11T06:49:42.263Z,98832.11
2023-05-11T06:59:50.656Z,98829.19
2023-05-11T07:09:54.781Z,98822.55
2023-05-11T07:20:03.144Z,98827.14
2023-05-11T07:30:07.782Z,98829.55
2023-05-11T07:40:12.316Z,98829.84
2023-05-11T07:50:17.201Z,98835.52
2023-05-11T08:00:25.588Z,98832.84
2023-05-11T08:10:29.451Z,98838.02
2023-05-11T08:20:33.522Z,98836.61
2023-05-11T08:30:39.245Z,98828.19
2023-05-11T08:40:47.470Z,98826.56
2023-05-11T09:00:55.756Z,98813.90
2023-05-11T09:11:00.492Z,98811.52
2023-05-11T09:21:03.519Z,98812.38
2023-05-11T09:31:07.391Z,98806.46
2023-05-11T09:41:11.088Z,98802.02
2023-05-11T09:51:14.559Z,98798.31
2023-05-11T10:01:17.159Z,98787.52
2023-05-11T10:11:22.354Z,98779.55
2023-05-11T10:21:28.659Z,98770.50
2023-05-11T10:31:33.402Z,98768.27
2023-05-11T10:41:48.494Z,98762.17
2023-05-11T10:52:06.419Z,98757.84
2023-05-11T11:02:10.418Z,98755.96
2023-05-11T11:12:14.428Z,98750.19
2023-05-11T11:22:46.449Z,98746.10
2023-05-11T11:32:51.901Z,98746.13
2023-05-11T11:43:09.622Z,98745.77
2023-05-11T11:53:13.152Z,98745.46
2023-05-11T12:03:22.897Z,98747.66
2023-05-11T12:13:26.970Z,98744.92
2023-05-11T12:23:32.349Z,98744.08
2023-05-11T12:33:45.141Z,98740.08
2023-05-11T12:43:49.162Z,98733.13
2023-05-11T12:53:53.301Z,98728.21
2023-05-11T13:03:57.074Z,98719.45
2023-05-11T13:14:16.564Z,98718.89
2023-05-11T13:24:44.405Z,98706.33
2023-05-11T13:34:47.369Z,98707.66
2023-05-11T13:44:50.794Z,98696.95
2023-05-11T13:54:54.510Z,98693.55
2023-05-11T14:05:01.395Z,98691.75
2023-05-11T14:15:06.852Z,98685.20
2023-05-11T14:35:14.757Z,98678.61
2023-05-11T14:45:42.500Z,98683.64
2023-05-11T14:55:46.252Z,98681.83
2023-05-11T15:05:53.422Z,98674.28
2023-05-11T15:15:57.619Z,98674.28
2023-05-11T15:26:01.734Z,98673.98
2023-05-11T15:36:05.846Z,98667.83
2023-05-11T15:46:09.585Z,98677.31
2023-05-11T15:56:13.333Z,98681.27
2023-05-11T16:06:17.163Z,98683.91
2023-05-11T16:16:20.665Z,98686.22
2023-05-11T16:26:28.977Z,98686.80
2023-05-11T16:36:33.695Z,98685.88
2023-05-11T16:46:37.822Z,98678.30
2023-05-11T16:56:42.359Z,98684.83
2023-05-11T17:06:49.497Z,98684.83
2023-05-11T17:16:53.479Z,98690.52
2023-05-11T17:26:57.129Z,98701.83
2023-05-11T17:37:00.653Z,98705.69
2023-05-11T17:47:03.687Z,98712.92
2023-05-11T17:57:11.038Z,98719.08
2023-05-11T18:07:14.638Z,98726.27
2023-05-11T18:17:18.033Z,98739.56
2023-05-11T18:27:21.840Z,98748.94
2023-05-11T18:37:25.410Z,98759.23
2023-05-11T18:47:29.316Z,98760.86
2023-05-11T18:57:34.037Z,98768.92
2023-05-11T19:07:38.713Z,98781.35
2023-05-11T19:17:42.383Z,98791.64
2023-05-11T19:27:46.310Z,98801.67
2023-05-11T19:37:50.703Z,98809.51
2023-05-11T19:47:54.420Z,98810.63
2023-05-11T19:57:58.402Z,98815.52
2023-05-11T20:08:02.780Z,98818.52
2023-05-11T20:18:07.376Z,98820.63
2023-05-11T20:28:11.851Z,98823.98
2023-05-11T20:38:16.220Z,98822.80
2023-05-11T20:48:28.875Z,98828.38
2023-05-11T20:58:40.370Z,98829.53
2023-05-11T21:08:44.135Z,98827.84
2023-05-11T21:18:47.952Z,98832.17
2023-05-11T21:28:50.932Z,98839.85
2023-05-11T21:38:54.666Z,98848.52
2023-05-11T21:48:58.527Z,98851.26
2023-05-11T21:59:02.115Z,98852.59
2023-05-11T22:09:06.506Z,98853.50
2023-05-11T22:19:10.537Z,98856.55
2023-05-11T22:29:14.604Z,98861.05
2023-05-11T22:39:18.667Z,98862.89
2023-05-11T22:49:47.276Z,98866.92
2023-05-11T22:59:55.106Z,98861.04
2023-05-11T23:09:59.980Z,98856.08
2023-05-11T23:20:03.773Z,98854.13
2023-05-11T23:30:09.592Z,98853.59
2023-05-11T23:40:13.433Z,98852.75
2023-05-11T23:50:16.122Z,98854.79
